createdAt,value
2022-09-22T00:00:42.607Z,21.10
2022-09-22T00:02:48.211Z,21.10
2022-09-22T00:04:52.398Z,21.10
2022-09-22T00:06:57.554Z,21.20
2022-09-22T00:09:03.091Z,21.10
2022-09-22T00:11:13.859Z,21.10
2022-09-22T00:13:18.039Z,21.10
2022-09-22T00:15:22.935Z,21.10
2022-09-22T00:17:27.079Z,21.00
2022-09-22T00:19:35.026Z,21.00
2022-09-22T00:21:39.249Z,21.00
2022-09-22T00:23:44.216Z,21.10
2022-09-22T00:25:48.410Z,20.90
2022-09-22T00:27:55.192Z,20.90
2022-09-22T00:29:59.461Z,20.90
2022-09-22T00:32:07.321Z,20.90
2022-09-22T00:34:16.737Z,20.90
2022-09-22T00:36:25.687Z,20.90
2022-09-22T00:38:30.654Z,21.00
2022-09-22T00:40:35.323Z,20.90
2022-09-22T00:42:39.607Z,20.90
2022-09-22T00:44:44.768Z,20.90
2022-09-22T00:46:52.603Z,20.80
2022-09-22T00:49:00.651Z,20.80
2022-09-22T00:51:08.842Z,20.80
2022-09-22T00:53:16.758Z,20.90
2022-09-22T00:55:24.263Z,20.90
2022-09-22T00:57:32.627Z,20.90
2022-09-22T00:59:37.819Z,20.90
2022-09-22T01:01:42.162Z,20.90
2022-09-22T01:03:46.487Z,20.90
2022-09-22T01:05:54.051Z,20.90
2022-09-22T01:07:58.468Z,20.90
2022-09-22T01:10:04.227Z,20.90
2022-09-22T01:12:09.638Z,20.80
2022-09-22T01:14:24.949Z,20.80
2022-09-22T01:16:43.748Z,20.70
2022-09-22T01:18:58.913Z,20.60
2022-09-22T01:21:21.266Z,20.50
2022-09-22T01:23:55.434Z,20.60
2022-09-22T01:26:21.134Z,20.60
2022-09-22T01:28:54.130Z,20.60
2022-09-22T01:31:04.634Z,20.60
2022-09-22T01:33:24.890Z,20.60
2022-09-22T01:35:33.425Z,20.70
2022-09-22T01:37:45.500Z,20.70
2022-09-22T01:39:54.236Z,20.70
2022-09-22T01:42:03.154Z,20.70
2022-09-22T01:44:14.237Z,20.70
2022-09-22T01:46:28.305Z,20.70
2022-09-22T01:48:35.223Z,20.70
2022-09-22T01:50:43.364Z,20.70
2022-09-22T01:52:49.398Z,20.70
2022-09-22T01:54:58.077Z,20.70
2022-09-22T01:57:14.385Z,20.60
2022-09-22T01:59:21.553Z,20.60
2022-09-22T02:01:30.878Z,20.60
2022-09-22T02:03:40.627Z,20.60
2022-09-22T02:05:49.574Z,20.50
2022-09-22T02:07:57.532Z,20.40
2022-09-22T02:10:06.763Z,20.40
2022-09-22T02:12:11.018Z,20.30
2022-09-22T02:14:15.546Z,20.30
2022-09-22T02:16:22.988Z,20.40
2022-09-22T02:18:33.257Z,20.40
2022-09-22T02:20:37.740Z,20.40
2022-09-22T02:22:41.936Z,20.40
2022-09-22T02:24:47.280Z,20.50
2022-09-22T02:26:51.995Z,20.50
2022-09-22T02:29:01.061Z,20.50
2022-09-22T02:31:22.255Z,20.50
2022-09-22T02:33:29.541Z,20.40
2022-09-22T02:35:38.744Z,20.40
2022-09-22T02:37:50.336Z,20.10
2022-09-22T02:40:04.848Z,20.20
2022-09-22T02:42:26.150Z,20.20
2022-09-22T02:44:35.486Z,20.20
2022-09-22T02:46:43.943Z,20.30
2022-09-22T02:48:52.750Z,20.30
2022-09-22T02:50:57.005Z,20.30
2022-09-22T02:53:05.186Z,20.30
2022-09-22T02:55:15.128Z,20.30
2022-09-22T02:57:19.323Z,20.30
2022-09-22T02:59:23.391Z,20.40
2022-09-22T03:01:27.953Z,20.30
2022-09-22T03:03:32.401Z,20.30
2022-09-22T03:05:38.038Z,20.10
2022-09-22T03:07:42.120Z,20.10
2022-09-22T03:09:46.183Z,20.20
2022-09-22T03:11:50.400Z,20.20
2022-09-22T03:13:54.835Z,20.20
2022-09-22T03:15:59.083Z,20.20
2022-09-22T03:18:03.238Z,20.20
2022-09-22T03:20:09.190Z,20.20
2022-09-22T03:22:14.731Z,19.00
2022-09-22T03:24:18.895Z,17.30
2022-09-22T03:26:23.050Z,16.10
2022-09-22T03:28:27.265Z,15.00
2022-09-22T03:30:31.746Z,14.30
2022-09-22T03:32:36.606Z,13.70
2022-09-22T03:34:40.854Z,13.20
2022-09-22T03:36:44.971Z,12.80
2022-09-22T03:38:52.107Z,12.60
2022-09-22T03:40:58.851Z,12.50
2022-09-22T03:43:03.227Z,12.40
2022-09-22T03:45:08.723Z,12.20
2022-09-22T03:47:13.234Z,12.10
2022-09-22T03:49:17.444Z,12.10
2022-09-22T03:51:21.789Z,11.90
2022-09-22T03:53:26.559Z,11.80
2022-09-22T03:55:32.471Z,11.60
2022-09-22T03:57:36.881Z,11.50
2022-09-22T03:59:41.538Z,11.40
2022-09-22T04:01:46.076Z,11.40
2022-09-22T04:03:50.659Z,11.40
2022-09-22T04:05:55.272Z,11.10
2022-09-22T04:07:59.573Z,11.00
2022-09-22T04:10:05.013Z,10.90
2022-09-22T04:12:11.609Z,10.80
2022-09-22T04:14:16.098Z,10.80
2022-09-22T04:16:20.295Z,10.80
2022-09-22T04:18:24.845Z,10.90
2022-09-22T04:20:30.379Z,10.90
2022-09-22T04:22:35.013Z,11.00
2022-09-22T04:24:39.289Z,11.90
2022-09-22T04:27:01.885Z,12.70
2022-09-22T04:29:09.241Z,13.60
2022-09-22T04:31:13.543Z,14.50
2022-09-22T04:33:18.124Z,15.00
2022-09-22T04:35:22.331Z,15.60
2022-09-22T04:37:26.497Z,16.00
2022-09-22T04:39:30.921Z,16.20
2022-09-22T04:41:35.123Z,16.40
2022-09-22T04:43:39.422Z,16.70
2022-09-22T04:45:47.275Z,17.30
2022-09-22T04:47:53.117Z,17.70
2022-09-22T04:49:57.565Z,18.20
2022-09-22T04:52:02.089Z,18.40
2022-09-22T04:54:06.513Z,18.60
2022-09-22T04:56:11.314Z,18.40
2022-09-22T04:58:15.613Z,17.90
2022-09-22T05:00:21.628Z,17.50
2022-09-22T05:02:27.557Z,17.20
2022-09-22T05:04:31.964Z,16.90
2022-09-22T05:06:36.496Z,16.80
2022-09-22T05:08:40.825Z,16.70
2022-09-22T05:10:45.486Z,16.40
2022-09-22T05:12:49.748Z,16.30
2022-09-22T05:14:54.158Z,16.00
2022-09-22T05:17:01.356Z,15.90
2022-09-22T05:19:07.079Z,15.70
2022-09-22T05:21:11.448Z,15.60
2022-09-22T05:23:15.888Z,15.30
2022-09-22T05:25:20.815Z,15.30
2022-09-22T05:27:25.449Z,15.30
2022-09-22T05:29:29.901Z,15.30
2022-09-22T05:31:34.244Z,15.30
2022-09-22T05:33:38.903Z,15.30
2022-09-22T05:35:44.472Z,15.00
2022-09-22T05:37:49.799Z,14.90
2022-09-22T05:39:53.997Z,14.70
2022-09-22T05:41:58.068Z,14.60
2022-09-22T05:44:03.145Z,14.40
2022-09-22T05:46:07.392Z,14.30
2022-09-22T05:48:12.176Z,14.20
2022-09-22T05:50:18.228Z,14.10
2022-09-22T05:52:24.256Z,14.10
2022-09-22T05:54:28.675Z,14.10
2022-09-22T05:56:33.125Z,14.40
2022-09-22T05:58:37.607Z,14.60
2022-09-22T06:00:42.903Z,15.00
2022-09-22T06:02:47.215Z,15.50
2022-09-22T06:04:51.971Z,15.70
2022-09-22T06:06:56.462Z,15.70
2022-09-22T06:09:02.528Z,15.30
2022-09-22T06:11:07.022Z,15.20
2022-09-22T06:13:13.021Z,15.30
2022-09-22T06:15:17.550Z,15.60
2022-09-22T06:17:22.707Z,15.60
2022-09-22T06:19:28.978Z,15.60
2022-09-22T06:21:33.709Z,15.70
2022-09-22T06:23:42.614Z,15.90
2022-09-22T06:25:48.837Z,16.10
2022-09-22T06:28:02.081Z,16.30
2022-09-22T06:30:11.255Z,16.20
2022-09-22T06:32:15.945Z,16.30
2022-09-22T06:34:20.249Z,17.00
2022-09-22T06:36:31.389Z,17.90
2022-09-22T06:38:36.114Z,18.30
2022-09-22T06:40:41.678Z,18.50
2022-09-22T06:42:51.227Z,19.00
2022-09-22T06:44:55.526Z,19.00
2022-09-22T06:47:05.431Z,19.60
2022-09-22T06:49:10.069Z,20.10
2022-09-22T06:51:14.428Z,20.30
2022-09-22T06:53:19.242Z,20.10
2022-09-22T06:55:23.811Z,19.80
2022-09-22T06:57:33.255Z,19.50
2022-09-22T06:59:39.152Z,19.40
2022-09-22T07:01:45.087Z,19.40
2022-09-22T07:03:49.600Z,19.50
2022-09-22T07:05:55.103Z,19.90
2022-09-22T07:07:59.446Z,20.20
2022-09-22T07:10:03.680Z,19.90
2022-09-22T07:12:08.433Z,19.80
2022-09-22T07:14:12.780Z,19.90
2022-09-22T07:16:19.693Z,20.00
2022-09-22T07:18:24.467Z,20.00
2022-09-22T07:20:29.101Z,20.20
2022-09-22T07:22:33.529Z,20.30
2022-09-22T07:24:37.874Z,20.40
2022-09-22T07:26:44.202Z,20.40
2022-09-22T07:28:50.487Z,20.40
2022-09-22T07:30:54.821Z,20.40
2022-09-22T07:33:01.918Z,20.60
2022-09-22T07:35:06.843Z,20.80
2022-09-22T07:37:15.608Z,21.10
2022-09-22T07:39:19.817Z,21.20
2022-09-22T07:41:27.612Z,21.30
2022-09-22T07:43:31.952Z,21.20
2022-09-22T07:45:35.220Z,21.00
2022-09-22T07:47:56.735Z,20.80
2022-09-22T07:50:04.264Z,20.20
2022-09-22T07:52:08.592Z,19.90
2022-09-22T07:54:13.056Z,20.10
2022-09-22T07:56:18.900Z,20.50
2022-09-22T07:58:23.254Z,20.50
2022-09-22T08:00:33.131Z,20.20
2022-09-22T08:02:38.258Z,19.90
2022-09-22T08:04:42.758Z,19.80
2022-09-22T08:06:50.472Z,19.80
2022-09-22T08:08:57.738Z,19.30
2022-09-22T08:11:06.480Z,19.00
2022-09-22T08:13:11.488Z,18.50
2022-09-22T08:15:15.672Z,18.60
2022-09-22T08:17:19.855Z,18.90
2022-09-22T08:19:24.917Z,19.30
2022-09-22T08:21:35.374Z,19.60
2022-09-22T08:23:41.836Z,19.80
2022-09-22T08:25:46.193Z,19.90
2022-09-22T08:27:50.334Z,20.00
2022-09-22T08:29:55.123Z,19.80
2022-09-22T08:31:59.207Z,19.50
2022-09-22T08:34:04.961Z,19.50
2022-09-22T08:36:11.832Z,19.70
2022-09-22T08:38:16.879Z,20.00
2022-09-22T08:40:24.105Z,20.30
2022-09-22T08:42:29.680Z,20.60
2022-09-22T08:44:40.810Z,20.70
2022-09-22T08:46:46.380Z,20.60
2022-09-22T08:49:09.158Z,20.50
2022-09-22T08:51:35.976Z,20.70
2022-09-22T08:53:47.949Z,20.70
2022-09-22T08:55:57.215Z,20.80
2022-09-22T08:58:08.047Z,20.80
2022-09-22T09:00:16.004Z,21.20
2022-09-22T09:02:46.975Z,21.30
2022-09-22T09:05:07.213Z,21.30
2022-09-22T09:07:19.787Z,21.40
2022-09-22T09:09:45.028Z,21.50
2022-09-22T09:12:21.904Z,21.60
2022-09-22T09:14:41.845Z,21.80
2022-09-22T09:16:50.484Z,22.10
2022-09-22T09:19:01.904Z,22.30
2022-09-22T09:21:11.378Z,22.40
2022-09-22T09:23:19.350Z,22.00
2022-09-22T09:25:32.368Z,21.60
2022-09-22T09:27:42.623Z,21.50
2022-09-22T09:29:57.344Z,21.70
2022-09-22T09:32:04.927Z,21.70
2022-09-22T09:34:14.513Z,21.20
2022-09-22T09:36:22.852Z,20.50
2022-09-22T09:38:29.567Z,20.10
2022-09-22T09:40:33.855Z,19.80
2022-09-22T09:42:39.687Z,19.80
2022-09-22T09:44:45.342Z,20.00
2022-09-22T09:46:59.380Z,20.00
2022-09-22T09:49:10.068Z,20.10
2022-09-22T09:51:14.885Z,20.00
2022-09-22T09:53:31.798Z,20.00
2022-09-22T09:55:36.012Z,20.20
2022-09-22T09:58:09.314Z,20.70
2022-09-22T10:00:32.246Z,20.90
2022-09-22T10:02:39.245Z,21.20
2022-09-22T10:04:51.992Z,21.40
2022-09-22T10:07:01.416Z,21.60
2022-09-22T10:09:06.352Z,21.50
2022-09-22T10:11:12.692Z,21.40
2022-09-22T10:13:31.504Z,21.20
2022-09-22T10:15:37.756Z,20.90
2022-09-22T10:17:45.099Z,20.80
2022-09-22T10:19:51.020Z,20.70
2022-09-22T10:22:17.516Z,20.70
2022-09-22T10:24:31.697Z,20.70
2022-09-22T10:26:36.541Z,20.40
2022-09-22T10:28:42.523Z,20.30
2022-09-22T10:31:00.450Z,20.40
2022-09-22T10:33:07.953Z,20.30
2022-09-22T10:35:28.179Z,20.20
2022-09-22T10:37:32.777Z,20.30
2022-09-22T10:39:49.238Z,20.30
2022-09-22T10:41:53.799Z,20.40
2022-09-22T10:44:15.519Z,20.40
2022-09-22T10:46:52.463Z,20.40
2022-09-22T10:49:04.793Z,20.40
2022-09-22T10:51:17.618Z,20.60
2022-09-22T10:54:00.057Z,20.40
2022-09-22T10:56:14.084Z,20.60
2022-09-22T10:58:28.610Z,20.90
2022-09-22T11:00:38.936Z,21.00
2022-09-22T11:03:20.462Z,21.20
2022-09-22T11:05:56.697Z,21.50
2022-09-22T11:08:24.432Z,21.60
2022-09-22T11:10:54.999Z,21.70
2022-09-22T11:13:11.817Z,21.90
2022-09-22T11:15:26.262Z,21.80
2022-09-22T11:17:46.712Z,21.90
2022-09-22T11:20:14.553Z,21.90
2022-09-22T11:22:48.856Z,22.10
2022-09-22T11:25:07.284Z,22.00
2022-09-22T11:27:17.373Z,21.90
2022-09-22T11:29:57.013Z,22.00
2022-09-22T11:32:15.993Z,22.10
2022-09-22T11:34:49.526Z,21.50
2022-09-22T11:36:58.931Z,21.40
2022-09-22T11:39:20.849Z,21.50
2022-09-22T11:41:31.635Z,21.60
2022-09-22T11:43:55.718Z,21.80
2022-09-22T11:46:11.921Z,21.80
2022-09-22T11:48:32.861Z,21.70
2022-09-22T11:51:11.585Z,21.80
2022-09-22T11:53:39.628Z,21.90
2022-09-22T11:55:50.419Z,22.00
2022-09-22T11:57:59.772Z,21.70
2022-09-22T12:00:07.285Z,21.70
2022-09-22T12:02:26.405Z,21.60
2022-09-22T12:04:37.771Z,21.60
2022-09-22T12:06:47.782Z,21.50
2022-09-22T12:11:04.447Z,21.20
2022-09-22T12:13:13.148Z,21.30
2022-09-22T12:15:23.674Z,21.10
2022-09-22T12:17:36.818Z,21.10
2022-09-22T12:19:51.235Z,21.00
2022-09-22T12:22:07.570Z,21.00
2022-09-22T12:24:13.539Z,21.00
2022-09-22T12:26:27.366Z,20.90
2022-09-22T12:28:38.134Z,20.90
2022-09-22T12:30:53.833Z,21.00
2022-09-22T12:32:58.025Z,20.80
2022-09-22T12:35:02.705Z,20.80
2022-09-22T12:37:14.564Z,20.70
2022-09-22T12:39:21.282Z,20.60
2022-09-22T12:41:25.411Z,20.60
2022-09-22T12:43:30.318Z,20.60
2022-09-22T12:45:37.158Z,20.60
2022-09-22T12:47:43.396Z,20.50
2022-09-22T12:49:52.653Z,20.40
2022-09-22T12:51:56.947Z,20.20
2022-09-22T12:54:47.000Z,20.20
2022-09-22T12:56:59.507Z,19.90
2022-09-22T12:59:03.802Z,19.50
2022-09-22T13:01:32.786Z,19.30
2022-09-22T13:03:51.988Z,19.20
2022-09-22T13:05:59.959Z,19.20
2022-09-22T13:08:04.803Z,19.10
2022-09-22T13:10:46.407Z,19.10
2022-09-22T13:13:20.865Z,19.10
2022-09-22T13:15:25.173Z,19.20
2022-09-22T13:17:41.471Z,19.30
2022-09-22T13:19:56.332Z,19.20
2022-09-22T13:22:17.867Z,19.30
2022-09-22T13:24:27.063Z,19.20
2022-09-22T13:26:34.557Z,19.30
2022-09-22T13:28:40.577Z,19.30
2022-09-22T13:30:46.687Z,19.40
2022-09-22T13:32:51.813Z,19.40
2022-09-22T13:34:55.910Z,19.40
2022-09-22T13:37:04.423Z,19.50
2022-09-22T13:39:11.540Z,19.60
2022-09-22T13:41:20.449Z,19.80
2022-09-22T13:43:33.184Z,19.90
2022-09-22T13:45:40.910Z,20.00
2022-09-22T13:47:45.777Z,20.00
2022-09-22T13:49:54.954Z,20.00
2022-09-22T13:52:02.834Z,20.00
2022-09-22T13:54:09.575Z,20.00
2022-09-22T13:56:21.635Z,20.10
2022-09-22T13:58:31.184Z,20.20
2022-09-22T14:01:01.732Z,20.00
2022-09-22T14:03:17.266Z,20.00
2022-09-22T14:05:25.001Z,19.90
2022-09-22T14:07:32.415Z,19.80
2022-09-22T14:09:39.746Z,19.90
2022-09-22T14:11:44.270Z,20.00
2022-09-22T14:13:59.531Z,20.00
2022-09-22T14:16:20.673Z,20.00
2022-09-22T14:18:28.030Z,20.00
2022-09-22T14:20:32.344Z,20.10
2022-09-22T14:22:43.326Z,20.10
2022-09-22T14:24:50.635Z,20.00
2022-09-22T14:27:00.209Z,20.00
2022-09-22T14:29:19.558Z,20.10
2022-09-22T14:31:29.251Z,20.10
2022-09-22T14:33:34.710Z,20.10
2022-09-22T14:35:38.921Z,19.90
2022-09-22T14:37:46.481Z,19.90
2022-09-22T14:39:53.618Z,19.80
2022-09-22T14:41:59.717Z,19.90
2022-09-22T14:44:26.549Z,19.90
2022-09-22T14:46:41.172Z,20.20
2022-09-22T14:48:45.754Z,20.30
2022-09-22T14:50:55.831Z,20.20
2022-09-22T14:53:06.798Z,20.20
2022-09-22T14:55:18.166Z,20.10
2022-09-22T14:57:22.697Z,19.80
2022-09-22T14:59:44.883Z,19.60
2022-09-22T15:02:08.693Z,19.60
2022-09-22T15:04:18.550Z,19.50
2022-09-22T15:06:22.870Z,19.40
2022-09-22T15:08:31.959Z,19.30
2022-09-22T15:10:37.077Z,19.20
2022-09-22T15:12:47.313Z,19.20
2022-09-22T15:15:00.472Z,19.10
2022-09-22T15:17:44.020Z,19.10
2022-09-22T15:19:51.495Z,19.00
2022-09-22T15:21:56.355Z,18.90
2022-09-22T15:24:01.809Z,18.90
2022-09-22T15:26:06.273Z,18.90
2022-09-22T15:28:13.838Z,18.80
2022-09-22T15:30:18.422Z,18.80
2022-09-22T15:32:24.277Z,18.80
2022-09-22T15:34:28.359Z,18.70
2022-09-22T15:36:33.778Z,18.70
2022-09-22T15:38:39.220Z,18.60
2022-09-22T15:40:43.367Z,18.60
2022-09-22T15:43:02.560Z,18.60
2022-09-22T15:45:14.447Z,18.60
2022-09-22T15:47:18.974Z,18.50
2022-09-22T15:49:27.094Z,18.40
2022-09-22T15:51:31.706Z,18.40
2022-09-22T15:53:37.824Z,18.40
2022-09-22T15:55:42.100Z,18.30
2022-09-22T15:57:48.836Z,18.30
2022-09-22T15:59:53.273Z,18.20
2022-09-22T16:02:01.343Z,18.20
2022-09-22T16:04:07.184Z,18.00
2022-09-22T16:06:15.931Z,18.10
2022-09-22T16:08:28.935Z,18.00
2022-09-22T16:10:36.530Z,18.00
2022-09-22T16:12:41.670Z,17.90
2022-09-22T16:14:45.752Z,17.90
2022-09-22T16:16:51.740Z,17.90
2022-09-22T16:18:56.211Z,17.80
2022-09-22T16:21:05.095Z,17.70
2022-09-22T16:23:11.101Z,17.60
2022-09-22T16:25:18.988Z,17.70
2022-09-22T16:27:23.181Z,18.00
2022-09-22T16:29:27.239Z,18.30
2022-09-22T16:31:31.808Z,18.70
2022-09-22T16:33:36.383Z,19.30
2022-09-22T16:35:40.684Z,19.70
2022-09-22T16:37:45.103Z,20.20
2022-09-22T16:39:50.631Z,20.60
2022-09-22T16:41:55.468Z,20.60
2022-09-22T16:44:00.097Z,19.80
2022-09-22T16:46:21.801Z,19.40
2022-09-22T16:48:26.026Z,18.70
2022-09-22T16:50:30.199Z,18.30
2022-09-22T16:52:34.450Z,18.10
2022-09-22T16:54:38.569Z,17.80
2022-09-22T16:56:46.084Z,17.60
2022-09-22T16:58:50.887Z,17.40
2022-09-22T17:00:55.154Z,17.80
2022-09-22T17:02:59.478Z,18.10
2022-09-22T17:05:03.632Z,18.10
2022-09-22T17:07:07.930Z,17.90
2022-09-22T17:09:13.213Z,18.00
2022-09-22T17:11:18.556Z,18.50
2022-09-22T17:13:26.765Z,18.90
2022-09-22T17:15:35.022Z,19.40
2022-09-22T17:17:39.675Z,18.80
2022-09-22T17:19:48.290Z,18.40
2022-09-22T17:21:55.498Z,18.50
2022-09-22T17:24:01.459Z,18.10
2022-09-22T17:26:07.516Z,17.40
2022-09-22T17:28:11.931Z,16.40
2022-09-22T17:30:17.713Z,15.90
2022-09-22T17:32:23.533Z,15.40
2022-09-22T17:34:29.572Z,15.10
2022-09-22T17:36:33.818Z,14.90
2022-09-22T17:38:40.218Z,14.70
2022-09-22T17:40:44.375Z,14.60
2022-09-22T17:42:48.889Z,14.80
2022-09-22T17:44:53.067Z,14.80
2022-09-22T17:47:16.053Z,14.80
2022-09-22T17:49:36.096Z,14.80
2022-09-22T17:51:59.546Z,14.70
2022-09-22T17:54:21.207Z,14.60
2022-09-22T17:56:25.481Z,14.70
2022-09-22T17:58:29.603Z,14.70
2022-09-22T18:00:33.996Z,14.70
2022-09-22T18:02:39.903Z,14.80
2022-09-22T18:04:45.941Z,14.90
2022-09-22T18:06:51.105Z,14.80
2022-09-22T18:09:02.247Z,14.90
2022-09-22T18:11:06.856Z,14.80
2022-09-22T18:13:10.960Z,14.70
2022-09-22T18:15:17.308Z,14.50
2022-09-22T18:17:23.916Z,14.20
2022-09-22T18:19:31.069Z,14.10
2022-09-22T18:21:35.420Z,14.10
2022-09-22T18:23:39.877Z,14.10
2022-09-22T18:25:44.322Z,14.10
2022-09-22T18:27:49.479Z,14.10
2022-09-22T18:29:58.551Z,14.10
2022-09-22T18:32:05.292Z,14.20
2022-09-22T18:34:10.665Z,14.20
2022-09-22T18:36:16.868Z,14.20
2022-09-22T18:38:21.373Z,14.20
2022-09-22T18:40:26.247Z,14.20
2022-09-22T18:42:32.793Z,14.20
2022-09-22T18:44:36.876Z,13.90
2022-09-22T18:46:41.065Z,13.60
2022-09-22T18:48:45.974Z,13.40
2022-09-22T18:50:54.550Z,13.50
2022-09-22T18:53:00.136Z,13.50
2022-09-22T18:55:09.449Z,13.60
2022-09-22T18:57:13.600Z,13.60
2022-09-22T18:59:19.898Z,13.60
2022-09-22T19:01:24.294Z,13.50
2022-09-22T19:03:28.527Z,13.50
2022-09-22T19:05:32.718Z,13.50
2022-09-22T19:07:42.416Z,13.50
2022-09-22T19:09:49.505Z,13.50
2022-09-22T19:11:54.101Z,13.40
2022-09-22T19:13:58.325Z,13.40
2022-09-22T19:16:04.164Z,13.30
2022-09-22T19:18:09.998Z,13.30
2022-09-22T19:20:15.766Z,13.40
2022-09-22T19:22:22.818Z,13.30
2022-09-22T19:24:27.019Z,13.20
2022-09-22T19:26:32.944Z,13.10
2022-09-22T19:28:37.089Z,13.10
2022-09-22T19:30:41.541Z,13.10
2022-09-22T19:32:46.397Z,13.10
2022-09-22T19:34:53.745Z,13.10
2022-09-22T19:36:58.361Z,13.10
2022-09-22T19:39:02.602Z,13.10
2022-09-22T19:41:06.796Z,13.20
2022-09-22T19:43:12.338Z,13.20
2022-09-22T19:45:16.817Z,13.20
2022-09-22T19:47:21.141Z,13.50
2022-09-22T19:49:25.693Z,14.10
2022-09-22T19:51:30.044Z,14.80
2022-09-22T19:53:34.290Z,15.00
2022-09-22T19:55:38.541Z,15.90
2022-09-22T19:57:42.821Z,17.60
2022-09-22T19:59:48.391Z,18.50
2022-09-22T20:01:53.038Z,19.00
2022-09-22T20:03:57.704Z,19.20
2022-09-22T20:06:02.112Z,19.30
2022-09-22T20:08:07.815Z,19.30
2022-09-22T20:10:13.299Z,19.60
2022-09-22T20:12:17.511Z,19.70
2022-09-22T20:14:20.655Z,20.00
2022-09-22T20:16:28.149Z,20.30
2022-09-22T20:18:33.393Z,20.50
2022-09-22T20:20:37.549Z,20.60
2022-09-22T20:22:42.225Z,20.50
2022-09-22T20:24:50.325Z,20.80
2022-09-22T20:26:54.456Z,20.80
2022-09-22T20:28:59.194Z,20.50
2022-09-22T20:31:03.391Z,19.90
2022-09-22T20:33:18.259Z,19.20
2022-09-22T20:35:22.797Z,18.70
2022-09-22T20:37:27.285Z,18.30
2022-09-22T20:39:32.680Z,17.90
2022-09-22T20:41:38.620Z,17.60
2022-09-22T20:43:42.690Z,17.40
2022-09-22T20:45:46.935Z,18.30
2022-09-22T20:47:51.085Z,19.00
2022-09-22T20:49:57.149Z,19.10
2022-09-22T20:52:01.961Z,18.70
2022-09-22T20:54:06.921Z,19.00
2022-09-22T20:56:14.029Z,19.50
2022-09-22T20:58:18.139Z,19.90
2022-09-22T21:00:22.315Z,20.10
2022-09-22T21:02:27.706Z,20.20
2022-09-22T21:04:32.139Z,20.30
2022-09-22T21:06:37.636Z,20.20
2022-09-22T21:09:00.544Z,20.40
2022-09-22T21:11:04.843Z,20.10
2022-09-22T21:13:12.513Z,20.00
2022-09-22T21:15:16.646Z,20.00
2022-09-22T21:17:21.341Z,20.10
2022-09-22T21:19:25.555Z,20.50
2022-09-22T21:21:31.308Z,20.50
2022-09-22T21:23:37.343Z,20.70
2022-09-22T21:25:41.491Z,20.50
2022-09-22T21:27:45.665Z,20.50
2022-09-22T21:29:50.243Z,20.10
2022-09-22T21:31:56.253Z,20.20
2022-09-22T21:34:00.460Z,20.50
2022-09-22T21:36:08.660Z,20.70
2022-09-22T21:38:12.821Z,20.90
2022-09-22T21:40:19.020Z,20.80
2022-09-22T21:42:23.217Z,19.70
2022-09-22T21:44:27.331Z,19.80
2022-09-22T21:46:31.957Z,20.20
2022-09-22T21:48:37.255Z,20.60
2022-09-22T21:50:41.503Z,20.70
2022-09-22T21:52:46.000Z,20.70
2022-09-22T21:54:51.438Z,20.80
2022-09-22T21:56:57.561Z,20.70
2022-09-22T21:59:03.457Z,20.90
2022-09-22T22:01:08.926Z,20.90
2022-09-22T22:03:30.623Z,20.60
2022-09-22T22:05:35.092Z,20.50
2022-09-22T22:07:39.181Z,20.00
2022-09-22T22:09:43.409Z,20.30
2022-09-22T22:11:49.456Z,20.20
2022-09-22T22:13:57.099Z,20.40
2022-09-22T22:16:02.115Z,20.30
2022-09-22T22:18:10.304Z,19.70
2022-09-22T22:20:14.623Z,18.80
2022-09-22T22:22:18.802Z,18.80
2022-09-22T22:24:29.508Z,18.50
2022-09-22T22:26:33.684Z,18.50
2022-09-22T22:28:37.943Z,18.50
2022-09-22T22:30:43.947Z,18.50
2022-09-22T22:32:48.117Z,17.90
2022-09-22T22:34:52.297Z,17.60
2022-09-22T22:36:58.081Z,17.10
2022-09-22T22:39:02.458Z,16.70
2022-09-22T22:41:10.057Z,16.60
2022-09-22T22:43:14.685Z,16.30
2022-09-22T22:45:19.000Z,16.30
2022-09-22T22:47:25.684Z,16.10
2022-09-22T22:49:29.893Z,16.10
2022-09-22T22:51:35.630Z,15.70
2022-09-22T22:53:39.955Z,15.30
2022-09-22T22:55:57.969Z,15.30
2022-09-22T22:58:02.489Z,15.20
2022-09-22T23:00:08.855Z,14.80
2022-09-22T23:02:13.002Z,14.60
2022-09-22T23:04:18.672Z,14.00
2022-09-22T23:06:25.250Z,13.70
2022-09-22T23:08:29.858Z,13.60
2022-09-22T23:10:35.414Z,13.70
2022-09-22T23:12:40.366Z,14.00
2022-09-22T23:14:44.648Z,14.60
2022-09-22T23:16:49.612Z,15.00
2022-09-22T23:18:54.370Z,15.20
2022-09-22T23:20:59.855Z,16.40
2022-09-22T23:23:04.070Z,17.80
2022-09-22T23:25:09.813Z,18.70
2022-09-22T23:27:15.102Z,19.40
2022-09-22T23:29:19.186Z,19.70
2022-09-22T23:31:23.452Z,19.50
2022-09-22T23:33:27.850Z,19.70
2022-09-22T23:35:32.014Z,19.80
2022-09-22T23:37:37.760Z,19.90
2022-09-22T23:39:42.028Z,19.80
2022-09-22T23:41:47.170Z,20.00
2022-09-22T23:43:51.752Z,20.00
2022-09-22T23:45:56.871Z,19.50
2022-09-22T23:48:01.023Z,19.00
2022-09-22T23:50:05.442Z,18.60
2022-09-22T23:52:09.630Z,17.70
2022-09-22T23:54:15.363Z,16.80
2022-09-22T23:56:20.047Z,16.00
2022-09-22T23:58:24.354Z,15.30
